sensor_id;sensor_type;location;lat;lon;timestamp;temperature;humidity
7936;DHT22;4013;49.744;8.118;2022-10-16T00:01:15;15.80;99.90
7936;DHT22;4013;49.744;8.118;2022-10-16T00:03:43;15.70;99.90
7936;DHT22;4013;49.744;8.118;2022-10-16T00:06:10;15.70;99.90
7936;DHT22;4013;49.744;8.118;2022-10-16T00:08:38;15.70;99.90
7936;DHT22;4013;49.744;8.118;2022-10-16T00:11:06;15.60;99.90
7936;DHT22;4013;49.744;8.118;2022-10-16T00:13:36;15.60;99.90
7936;DHT22;4013;49.744;8.118;2022-10-16T00:16:03;15.60;99.90
7936;DHT22;4013;49.744;8.118;2022-10-16T00:18:31;15.60;99.90
7936;DHT22;4013;49.744;8.118;2022-10-16T00:21:02;15.50;99.90
7936;DHT22;4013;49.744;8.118;2022-10-16T00:23:29;15.50;99.90
7936;DHT22;4013;49.744;8.118;2022-10-16T00:25:56;15.50;99.90
7936;DHT22;4013;49.744;8.118;2022-10-16T00:28:23;15.50;99.90
7936;DHT22;4013;49.744;8.118;2022-10-16T00:30:52;15.50;99.90
7936;DHT22;4013;49.744;8.118;2022-10-16T00:33:19;15.50;99.90
7936;DHT22;4013;49.744;8.118;2022-10-16T00:35:45;15.50;99.90
7936;DHT22;4013;49.744;8.118;2022-10-16T00:38:12;15.50;99.90
7936;DHT22;4013;49.744;8.118;2022-10-16T00:40:39;15.50;99.90
7936;DHT22;4013;49.744;8.118;2022-10-16T00:43:12;15.50;99.90
7936;DHT22;4013;49.744;8.118;2022-10-16T00:45:40;15.50;99.90
7936;DHT22;4013;49.744;8.118;2022-10-16T00:48:11;15.40;99.90
7936;DHT22;4013;49.744;8.118;2022-10-16T00:50:40;15.40;99.90
7936;DHT22;4013;49.744;8.118;2022-10-16T00:53:09;15.40;99.90
7936;DHT22;4013;49.744;8.118;2022-10-16T00:55:37;15.50;99.90
7936;DHT22;4013;49.744;8.118;2022-10-16T00:58:04;15.50;99.90
7936;DHT22;4013;49.744;8.118;2022-10-16T01:00:31;15.60;99.90
7936;DHT22;4013;49.744;8.118;2022-10-16T01:03:00;15.60;99.90
7936;DHT22;4013;49.744;8.118;2022-10-16T01:05:33;15.50;99.90
7936;DHT22;4013;49.744;8.118;2022-10-16T01:08:07;15.50;99.90
7936;DHT22;4013;49.744;8.118;2022-10-16T01:10:39;15.50;99.90
7936;DHT22;4013;49.744;8.118;2022-10-16T01:13:09;15.50;99.90
7936;DHT22;4013;49.744;8.118;2022-10-16T01:15:42;15.50;99.90
7936;DHT22;4013;49.744;8.118;2022-10-16T01:18:16;15.50;99.90
7936;DHT22;4013;49.744;8.118;2022-10-16T01:20:47;15.50;99.90
7936;DHT22;4013;49.744;8.118;2022-10-16T01:23:36;15.50;99.90
7936;DHT22;4013;49.744;8.118;2022-10-16T01:26:18;15.50;99.90
7936;DHT22;4013;49.744;8.118;2022-10-16T01:28:52;15.50;99.90
7936;DHT22;4013;49.744;8.118;2022-10-16T01:31:25;15.50;99.90
7936;DHT22;4013;49.744;8.118;2022-10-16T01:33:57;15.60;99.90
7936;DHT22;4013;49.744;8.118;2022-10-16T01:36:28;15.60;99.90
7936;DHT22;4013;49.744;8.118;2022-10-16T01:39:00;15.60;99.90
7936;DHT22;4013;49.744;8.118;2022-10-16T01:41:32;15.60;99.90
7936;DHT22;4013;49.744;8.118;2022-10-16T01:44:04;15.70;99.90
7936;DHT22;4013;49.744;8.118;2022-10-16T01:46:34;15.70;99.90
7936;DHT22;4013;49.744;8.118;2022-10-16T01:49:03;15.70;99.90
7936;DHT22;4013;49.744;8.118;2022-10-16T01:51:30;15.70;99.90
7936;DHT22;4013;49.744;8.118;2022-10-16T01:54:00;15.70;99.90
7936;DHT22;4013;49.744;8.118;2022-10-16T01:56:28;15.70;99.90
7936;DHT22;4013;49.744;8.118;2022-10-16T01:58:58;15.70;99.90
7936;DHT22;4013;49.744;8.118;2022-10-16T02:01:31;15.70;99.90
7936;DHT22;4013;49.744;8.118;2022-10-16T02:04:19;15.60;99.90
7936;DHT22;4013;49.744;8.118;2022-10-16T02:06:47;15.60;99.90
7936;DHT22;4013;49.744;8.118;2022-10-16T02:09:14;15.60;99.90
7936;DHT22;4013;49.744;8.118;2022-10-16T02:11:42;15.60;99.90
7936;DHT22;4013;49.744;8.118;2022-10-16T02:14:09;15.60;99.90
7936;DHT22;4013;49.744;8.118;2022-10-16T02:16:40;15.60;99.90
7936;DHT22;4013;49.744;8.118;2022-10-16T02:19:07;15.60;99.90
7936;DHT22;4013;49.744;8.118;2022-10-16T02:21:41;15.60;99.90
7936;DHT22;4013;49.744;8.118;2022-10-16T02:24:13;15.60;99.90
7936;DHT22;4013;49.744;8.118;2022-10-16T02:26:49;15.60;99.90
7936;DHT22;4013;49.744;8.118;2022-10-16T02:29:22;15.70;99.90
7936;DHT22;4013;49.744;8.118;2022-10-16T02:31:55;15.70;99.90
7936;DHT22;4013;49.744;8.118;2022-10-16T02:34:24;15.70;99.90
7936;DHT22;4013;49.744;8.118;2022-10-16T02:36:53;15.70;99.90
7936;DHT22;4013;49.744;8.118;2022-10-16T02:39:20;15.70;99.90
7936;DHT22;4013;49.744;8.118;2022-10-16T02:41:47;15.80;99.90
7936;DHT22;4013;49.744;8.118;2022-10-16T02:44:14;15.80;99.90
7936;DHT22;4013;49.744;8.118;2022-10-16T02:46:41;15.80;99.90
7936;DHT22;4013;49.744;8.118;2022-10-16T02:49:09;15.80;99.90
7936;DHT22;4013;49.744;8.118;2022-10-16T02:51:36;15.90;99.90
7936;DHT22;4013;49.744;8.118;2022-10-16T02:54:03;15.90;99.90
7936;DHT22;4013;49.744;8.118;2022-10-16T02:56:30;15.90;99.90
7936;DHT22;4013;49.744;8.118;2022-10-16T02:58:57;15.90;99.90
7936;DHT22;4013;49.744;8.118;2022-10-16T03:01:24;15.90;99.90
7936;DHT22;4013;49.744;8.118;2022-10-16T03:03:51;15.80;99.90
7936;DHT22;4013;49.744;8.118;2022-10-16T03:06:19;15.80;99.90
7936;DHT22;4013;49.744;8.118;2022-10-16T03:08:46;15.80;99.90
7936;DHT22;4013;49.744;8.118;2022-10-16T03:11:13;15.80;99.90
7936;DHT22;4013;49.744;8.118;2022-10-16T03:13:39;15.70;99.90
7936;DHT22;4013;49.744;8.118;2022-10-16T03:16:06;15.80;99.90
7936;DHT22;4013;49.744;8.118;2022-10-16T03:18:33;15.80;99.90
7936;DHT22;4013;49.744;8.118;2022-10-16T03:21:00;15.80;99.90
7936;DHT22;4013;49.744;8.118;2022-10-16T03:23:28;15.70;99.90
7936;DHT22;4013;49.744;8.118;2022-10-16T03:25:55;15.70;99.90
7936;DHT22;4013;49.744;8.118;2022-10-16T03:28:22;15.60;99.90
7936;DHT22;4013;49.744;8.118;2022-10-16T03:30:49;15.60;99.90
7936;DHT22;4013;49.744;8.118;2022-10-16T03:33:16;15.60;99.90
7936;DHT22;4013;49.744;8.118;2022-10-16T03:35:43;15.60;99.90
7936;DHT22;4013;49.744;8.118;2022-10-16T03:38:17;15.50;99.90
7936;DHT22;4013;49.744;8.118;2022-10-16T03:40:45;15.50;99.90
7936;DHT22;4013;49.744;8.118;2022-10-16T03:43:12;15.50;99.90
7936;DHT22;4013;49.744;8.118;2022-10-16T03:45:38;15.50;99.90
7936;DHT22;4013;49.744;8.118;2022-10-16T03:48:05;15.50;99.90
7936;DHT22;4013;49.744;8.118;2022-10-16T03:50:32;15.50;99.90
7936;DHT22;4013;49.744;8.118;2022-10-16T03:52:59;15.50;99.90
7936;DHT22;4013;49.744;8.118;2022-10-16T03:55:26;15.40;99.90
7936;DHT22;4013;49.744;8.118;2022-10-16T03:57:54;15.40;99.90
7936;DHT22;4013;49.744;8.118;2022-10-16T04:00:21;15.40;99.90
7936;DHT22;4013;49.744;8.118;2022-10-16T04:02:48;15.40;99.90
7936;DHT22;4013;49.744;8.118;2022-10-16T04:05:15;15.50;99.90
7936;DHT22;4013;49.744;8.118;2022-10-16T04:07:41;15.50;99.90
7936;DHT22;4013;49.744;8.118;2022-10-16T04:10:09;15.60;99.90
7936;DHT22;4013;49.744;8.118;2022-10-16T04:12:35;15.60;99.90
7936;DHT22;4013;49.744;8.118;2022-10-16T04:15:04;15.60;99.90
7936;DHT22;4013;49.744;8.118;2022-10-16T04:17:31;15.60;99.90
7936;DHT22;4013;49.744;8.118;2022-10-16T04:19:58;15.60;99.90
7936;DHT22;4013;49.744;8.118;2022-10-16T04:22:25;15.60;99.90
7936;DHT22;4013;49.744;8.118;2022-10-16T04:24:51;15.60;99.90
7936;DHT22;4013;49.744;8.118;2022-10-16T04:27:18;15.60;99.90
7936;DHT22;4013;49.744;8.118;2022-10-16T04:29:45;15.60;99.90
7936;DHT22;4013;49.744;8.118;2022-10-16T04:32:13;15.50;99.90
7936;DHT22;4013;49.744;8.118;2022-10-16T04:34:40;15.50;99.90
7936;DHT22;4013;49.744;8.118;2022-10-16T04:37:07;15.50;99.90
7936;DHT22;4013;49.744;8.118;2022-10-16T04:39:34;15.50;99.90
7936;DHT22;4013;49.744;8.118;2022-10-16T04:42:01;15.50;99.90
7936;DHT22;4013;49.744;8.118;2022-10-16T04:44:28;15.40;99.90
7936;DHT22;4013;49.744;8.118;2022-10-16T04:46:55;15.50;99.90
7936;DHT22;4013;49.744;8.118;2022-10-16T04:49:23;15.50;99.90
7936;DHT22;4013;49.744;8.118;2022-10-16T04:51:50;15.50;99.90
7936;DHT22;4013;49.744;8.118;2022-10-16T04:54:17;15.50;99.90
7936;DHT22;4013;49.744;8.118;2022-10-16T04:56:44;15.50;99.90
7936;DHT22;4013;49.744;8.118;2022-10-16T04:59:13;15.50;99.90
7936;DHT22;4013;49.744;8.118;2022-10-16T05:01:40;15.60;99.90
7936;DHT22;4013;49.744;8.118;2022-10-16T05:04:07;15.60;99.90
7936;DHT22;4013;49.744;8.118;2022-10-16T05:06:36;15.70;99.90
7936;DHT22;4013;49.744;8.118;2022-10-16T05:09:04;15.70;99.90
7936;DHT22;4013;49.744;8.118;2022-10-16T05:11:31;15.70;99.90
7936;DHT22;4013;49.744;8.118;2022-10-16T05:13:58;15.70;99.90
7936;DHT22;4013;49.744;8.118;2022-10-16T05:16:25;15.70;99.90
7936;DHT22;4013;49.744;8.118;2022-10-16T05:18:52;15.60;99.90
7936;DHT22;4013;49.744;8.118;2022-10-16T05:21:19;15.60;99.90
7936;DHT22;4013;49.744;8.118;2022-10-16T05:23:47;15.60;99.90
7936;DHT22;4013;49.744;8.118;2022-10-16T05:26:14;15.60;99.90
7936;DHT22;4013;49.744;8.118;2022-10-16T05:28:41;15.50;99.90
7936;DHT22;4013;49.744;8.118;2022-10-16T05:31:09;15.50;99.90
7936;DHT22;4013;49.744;8.118;2022-10-16T05:33:36;15.40;99.90
7936;DHT22;4013;49.744;8.118;2022-10-16T05:36:03;15.40;99.90
7936;DHT22;4013;49.744;8.118;2022-10-16T05:38:30;15.40;99.90
7936;DHT22;4013;49.744;8.118;2022-10-16T05:40:58;15.40;99.90
7936;DHT22;4013;49.744;8.118;2022-10-16T05:43:27;15.50;99.90
7936;DHT22;4013;49.744;8.118;2022-10-16T05:45:55;15.50;99.90
7936;DHT22;4013;49.744;8.118;2022-10-16T05:48:22;15.50;99.90
7936;DHT22;4013;49.744;8.118;2022-10-16T05:50:55;15.40;99.90
7936;DHT22;4013;49.744;8.118;2022-10-16T05:53:22;15.50;99.90
7936;DHT22;4013;49.744;8.118;2022-10-16T05:55:54;15.50;99.90
7936;DHT22;4013;49.744;8.118;2022-10-16T05:58:23;15.50;99.90
7936;DHT22;4013;49.744;8.118;2022-10-16T06:00:53;15.50;99.90
7936;DHT22;4013;49.744;8.118;2022-10-16T06:03:21;15.50;99.90
7936;DHT22;4013;49.744;8.118;2022-10-16T06:05:48;15.40;99.90
7936;DHT22;4013;49.744;8.118;2022-10-16T06:08:16;15.40;99.90
7936;DHT22;4013;49.744;8.118;2022-10-16T06:10:43;15.30;99.90
7936;DHT22;4013;49.744;8.118;2022-10-16T06:13:10;15.40;99.90
7936;DHT22;4013;49.744;8.118;2022-10-16T06:15:39;15.40;99.90
7936;DHT22;4013;49.744;8.118;2022-10-16T06:18:07;15.40;99.90
7936;DHT22;4013;49.744;8.118;2022-10-16T06:20:34;15.40;99.90
7936;DHT22;4013;49.744;8.118;2022-10-16T06:23:01;15.50;99.90
7936;DHT22;4013;49.744;8.118;2022-10-16T06:25:29;15.40;99.90
7936;DHT22;4013;49.744;8.118;2022-10-16T06:27:56;15.40;99.90
7936;DHT22;4013;49.744;8.118;2022-10-16T06:30:23;15.50;99.90
7936;DHT22;4013;49.744;8.118;2022-10-16T06:32:51;15.50;99.90
7936;DHT22;4013;49.744;8.118;2022-10-16T06:35:18;15.50;99.90
7936;DHT22;4013;49.744;8.118;2022-10-16T06:37:45;15.50;99.90
7936;DHT22;4013;49.744;8.118;2022-10-16T06:40:12;15.50;99.90
7936;DHT22;4013;49.744;8.118;2022-10-16T06:42:40;15.50;99.90
7936;DHT22;4013;49.744;8.118;2022-10-16T06:45:07;15.60;99.90
7936;DHT22;4013;49.744;8.118;2022-10-16T06:47:34;15.60;99.90
7936;DHT22;4013;49.744;8.118;2022-10-16T06:50:03;15.60;99.90
7936;DHT22;4013;49.744;8.118;2022-10-16T06:52:32;15.60;99.90
7936;DHT22;4013;49.744;8.118;2022-10-16T06:54:59;15.70;99.90
7936;DHT22;4013;49.744;8.118;2022-10-16T06:57:26;15.60;99.90
7936;DHT22;4013;49.744;8.118;2022-10-16T06:59:53;15.60;99.90
7936;DHT22;4013;49.744;8.118;2022-10-16T07:02:19;15.70;99.90
7936;DHT22;4013;49.744;8.118;2022-10-16T07:04:46;15.70;99.90
7936;DHT22;4013;49.744;8.118;2022-10-16T07:07:15;15.80;99.90
7936;DHT22;4013;49.744;8.118;2022-10-16T07:09:41;15.70;99.90
7936;DHT22;4013;49.744;8.118;2022-10-16T07:12:08;15.80;99.90
7936;DHT22;4013;49.744;8.118;2022-10-16T07:14:35;15.80;99.90
7936;DHT22;4013;49.744;8.118;2022-10-16T07:17:02;15.80;99.90
7936;DHT22;4013;49.744;8.118;2022-10-16T07:19:29;15.80;99.90
7936;DHT22;4013;49.744;8.118;2022-10-16T07:21:56;15.80;99.90
7936;DHT22;4013;49.744;8.118;2022-10-16T07:24:24;15.80;99.90
7936;DHT22;4013;49.744;8.118;2022-10-16T07:26:51;15.80;99.90
7936;DHT22;4013;49.744;8.118;2022-10-16T07:29:20;15.90;99.90
7936;DHT22;4013;49.744;8.118;2022-10-16T07:31:48;15.90;99.90
7936;DHT22;4013;49.744;8.118;2022-10-16T07:34:16;15.80;99.90
7936;DHT22;4013;49.744;8.118;2022-10-16T07:36:43;15.90;99.90
7936;DHT22;4013;49.744;8.118;2022-10-16T07:39:11;15.90;99.90
7936;DHT22;4013;49.744;8.118;2022-10-16T07:41:39;15.90;99.90
7936;DHT22;4013;49.744;8.118;2022-10-16T07:44:06;15.80;99.90
7936;DHT22;4013;49.744;8.118;2022-10-16T07:46:33;15.80;99.90
7936;DHT22;4013;49.744;8.118;2022-10-16T07:49:01;15.90;99.90
7936;DHT22;4013;49.744;8.118;2022-10-16T07:51:28;15.90;99.90
7936;DHT22;4013;49.744;8.118;2022-10-16T07:53:55;15.90;99.90
7936;DHT22;4013;49.744;8.118;2022-10-16T07:56:22;15.90;99.90
7936;DHT22;4013;49.744;8.118;2022-10-16T07:58:51;15.90;99.90
7936;DHT22;4013;49.744;8.118;2022-10-16T08:01:19;15.90;99.90
7936;DHT22;4013;49.744;8.118;2022-10-16T08:03:47;16.00;99.90
7936;DHT22;4013;49.744;8.118;2022-10-16T08:06:14;15.90;99.90
7936;DHT22;4013;49.744;8.118;2022-10-16T08:08:42;15.90;99.90
7936;DHT22;4013;49.744;8.118;2022-10-16T08:11:09;15.90;99.90
7936;DHT22;4013;49.744;8.118;2022-10-16T08:13:36;15.90;99.90
7936;DHT22;4013;49.744;8.118;2022-10-16T08:16:05;15.80;99.90
7936;DHT22;4013;49.744;8.118;2022-10-16T08:18:34;15.70;99.90
7936;DHT22;4013;49.744;8.118;2022-10-16T08:21:01;15.70;99.90
7936;DHT22;4013;49.744;8.118;2022-10-16T08:23:28;15.70;99.90
7936;DHT22;4013;49.744;8.118;2022-10-16T08:25:56;15.70;99.90
7936;DHT22;4013;49.744;8.118;2022-10-16T08:28:23;15.70;99.90
7936;DHT22;4013;49.744;8.118;2022-10-16T08:30:50;15.70;99.90
7936;DHT22;4013;49.744;8.118;2022-10-16T08:33:18;15.80;99.90
7936;DHT22;4013;49.744;8.118;2022-10-16T08:35:51;15.80;99.90
7936;DHT22;4013;49.744;8.118;2022-10-16T08:38:19;15.80;99.90
7936;DHT22;4013;49.744;8.118;2022-10-16T08:40:46;16.00;99.90
7936;DHT22;4013;49.744;8.118;2022-10-16T08:43:35;16.00;99.90
7936;DHT22;4013;49.744;8.118;2022-10-16T08:46:23;16.10;99.90
7936;DHT22;4013;49.744;8.118;2022-10-16T08:48:56;16.10;99.90
7936;DHT22;4013;49.744;8.118;2022-10-16T08:51:25;16.00;99.90
7936;DHT22;4013;49.744;8.118;2022-10-16T08:53:54;16.00;99.90
7936;DHT22;4013;49.744;8.118;2022-10-16T08:56:25;16.00;99.90
7936;DHT22;4013;49.744;8.118;2022-10-16T08:58:53;16.00;99.90
7936;DHT22;4013;49.744;8.118;2022-10-16T09:01:22;16.10;99.90
7936;DHT22;4013;49.744;8.118;2022-10-16T09:04:02;16.10;99.90
7936;DHT22;4013;49.744;8.118;2022-10-16T09:06:46;16.20;99.90
7936;DHT22;4013;49.744;8.118;2022-10-16T09:09:31;16.20;99.90
7936;DHT22;4013;49.744;8.118;2022-10-16T09:12:07;16.20;99.90
7936;DHT22;4013;49.744;8.118;2022-10-16T09:14:44;16.30;99.90
7936;DHT22;4013;49.744;8.118;2022-10-16T09:17:27;16.40;99.90
7936;DHT22;4013;49.744;8.118;2022-10-16T09:20:10;16.50;99.90
7936;DHT22;4013;49.744;8.118;2022-10-16T09:22:40;16.50;99.90
7936;DHT22;4013;49.744;8.118;2022-10-16T09:25:12;16.60;99.90
7936;DHT22;4013;49.744;8.118;2022-10-16T09:27:39;16.70;99.90
7936;DHT22;4013;49.744;8.118;2022-10-16T09:30:12;16.70;99.90
7936;DHT22;4013;49.744;8.118;2022-10-16T09:32:40;16.80;99.90
7936;DHT22;4013;49.744;8.118;2022-10-16T09:35:13;16.90;99.90
7936;DHT22;4013;49.744;8.118;2022-10-16T09:37:42;16.90;99.90
7936;DHT22;4013;49.744;8.118;2022-10-16T09:40:13;17.00;99.90
7936;DHT22;4013;49.744;8.118;2022-10-16T09:42:40;17.10;99.90
7936;DHT22;4013;49.744;8.118;2022-10-16T09:45:21;17.10;99.90
7936;DHT22;4013;49.744;8.118;2022-10-16T09:47:48;17.10;99.90
7936;DHT22;4013;49.744;8.118;2022-10-16T09:50:23;16.80;99.90
7936;DHT22;4013;49.744;8.118;2022-10-16T09:53:03;16.70;99.90
7936;DHT22;4013;49.744;8.118;2022-10-16T09:55:30;16.60;99.90
7936;DHT22;4013;49.744;8.118;2022-10-16T09:57:57;16.50;99.90
7936;DHT22;4013;49.744;8.118;2022-10-16T10:00:25;16.50;99.90
7936;DHT22;4013;49.744;8.118;2022-10-16T10:02:53;16.50;99.90
7936;DHT22;4013;49.744;8.118;2022-10-16T10:05:23;16.50;99.90
7936;DHT22;4013;49.744;8.118;2022-10-16T10:07:55;16.50;99.90
7936;DHT22;4013;49.744;8.118;2022-10-16T10:10:26;16.60;99.90
7936;DHT22;4013;49.744;8.118;2022-10-16T10:12:53;16.70;99.90
7936;DHT22;4013;49.744;8.118;2022-10-16T10:15:21;16.70;99.90
7936;DHT22;4013;49.744;8.118;2022-10-16T10:17:50;16.80;99.90
7936;DHT22;4013;49.744;8.118;2022-10-16T10:20:27;16.80;99.90
7936;DHT22;4013;49.744;8.118;2022-10-16T10:22:55;16.80;99.90
7936;DHT22;4013;49.744;8.118;2022-10-16T10:25:42;16.90;99.90
7936;DHT22;4013;49.744;8.118;2022-10-16T10:28:28;17.10;99.90
7936;DHT22;4013;49.744;8.118;2022-10-16T10:31:03;17.30;99.90
7936;DHT22;4013;49.744;8.118;2022-10-16T10:33:40;17.50;99.90
7936;DHT22;4013;49.744;8.118;2022-10-16T10:36:18;17.60;99.90
7936;DHT22;4013;49.744;8.118;2022-10-16T10:38:50;17.50;99.90
7936;DHT22;4013;49.744;8.118;2022-10-16T10:44:18;17.50;99.90
7936;DHT22;4013;49.744;8.118;2022-10-16T10:46:51;17.60;99.90
7936;DHT22;4013;49.744;8.118;2022-10-16T10:49:34;17.60;99.90
7936;DHT22;4013;49.744;8.118;2022-10-16T10:52:14;17.60;99.90
7936;DHT22;4013;49.744;8.118;2022-10-16T10:54:49;17.60;99.90
7936;DHT22;4013;49.744;8.118;2022-10-16T10:57:22;17.60;99.90
7936;DHT22;4013;49.744;8.118;2022-10-16T11:00:06;17.60;99.90
7936;DHT22;4013;49.744;8.118;2022-10-16T11:02:39;17.60;99.90
7936;DHT22;4013;49.744;8.118;2022-10-16T11:05:43;17.60;99.90
7936;DHT22;4013;49.744;8.118;2022-10-16T11:08:17;17.60;99.90
7936;DHT22;4013;49.744;8.118;2022-10-16T11:10:49;17.60;99.90
7936;DHT22;4013;49.744;8.118;2022-10-16T11:13:24;17.60;99.90
7936;DHT22;4013;49.744;8.118;2022-10-16T11:15:56;17.70;99.90
7936;DHT22;4013;49.744;8.118;2022-10-16T11:18:27;17.70;99.90
7936;DHT22;4013;49.744;8.118;2022-10-16T11:20:59;17.70;99.90
7936;DHT22;4013;49.744;8.118;2022-10-16T11:23:30;17.80;99.90
7936;DHT22;4013;49.744;8.118;2022-10-16T11:26:02;17.90;99.90
7936;DHT22;4013;49.744;8.118;2022-10-16T11:28:34;17.90;99.90
7936;DHT22;4013;49.744;8.118;2022-10-16T11:31:05;18.00;99.90
7936;DHT22;4013;49.744;8.118;2022-10-16T11:33:39;18.10;99.90
7936;DHT22;4013;49.744;8.118;2022-10-16T11:36:12;18.30;99.90
7936;DHT22;4013;49.744;8.118;2022-10-16T11:38:49;18.30;99.90
7936;DHT22;4013;49.744;8.118;2022-10-16T11:41:24;18.20;99.90
7936;DHT22;4013;49.744;8.118;2022-10-16T11:44:06;18.30;99.90
7936;DHT22;4013;49.744;8.118;2022-10-16T11:46:38;18.30;99.90
7936;DHT22;4013;49.744;8.118;2022-10-16T11:49:10;18.50;99.90
7936;DHT22;4013;49.744;8.118;2022-10-16T11:51:40;18.60;99.90
7936;DHT22;4013;49.744;8.118;2022-10-16T11:54:16;18.70;99.90
7936;DHT22;4013;49.744;8.118;2022-10-16T11:56:48;18.90;99.90
7936;DHT22;4013;49.744;8.118;2022-10-16T11:59:23;19.00;99.90
7936;DHT22;4013;49.744;8.118;2022-10-16T12:01:57;19.20;99.90
7936;DHT22;4013;49.744;8.118;2022-10-16T12:04:31;19.20;99.90
7936;DHT22;4013;49.744;8.118;2022-10-16T12:07:04;19.10;99.90
7936;DHT22;4013;49.744;8.118;2022-10-16T12:09:37;19.00;99.90
7936;DHT22;4013;49.744;8.118;2022-10-16T12:12:05;18.90;99.90
7936;DHT22;4013;49.744;8.118;2022-10-16T12:15:00;18.90;99.90
7936;DHT22;4013;49.744;8.118;2022-10-16T12:17:34;19.10;99.90
7936;DHT22;4013;49.744;8.118;2022-10-16T12:20:20;19.30;99.90
7936;DHT22;4013;49.744;8.118;2022-10-16T12:22:49;19.50;99.90
7936;DHT22;4013;49.744;8.118;2022-10-16T12:25:26;19.60;99.90
7936;DHT22;4013;49.744;8.118;2022-10-16T12:27:55;19.50;99.90
7936;DHT22;4013;49.744;8.118;2022-10-16T12:30:24;19.40;99.90
7936;DHT22;4013;49.744;8.118;2022-10-16T12:32:56;19.40;99.90
7936;DHT22;4013;49.744;8.118;2022-10-16T12:35:26;19.40;99.90
7936;DHT22;4013;49.744;8.118;2022-10-16T12:37:54;19.30;99.90
7936;DHT22;4013;49.744;8.118;2022-10-16T12:40:34;19.40;99.90
7936;DHT22;4013;49.744;8.118;2022-10-16T12:43:12;19.50;99.90
7936;DHT22;4013;49.744;8.118;2022-10-16T12:45:39;19.50;99.90
7936;DHT22;4013;49.744;8.118;2022-10-16T12:48:19;19.60;99.90
7936;DHT22;4013;49.744;8.118;2022-10-16T12:50:46;19.50;99.90
7936;DHT22;4013;49.744;8.118;2022-10-16T12:53:24;19.50;99.90
7936;DHT22;4013;49.744;8.118;2022-10-16T12:56:01;19.40;99.90
7936;DHT22;4013;49.744;8.118;2022-10-16T12:58:51;19.30;99.90
7936;DHT22;4013;49.744;8.118;2022-10-16T13:01:31;19.20;99.90
7936;DHT22;4013;49.744;8.118;2022-10-16T13:04:27;19.20;99.90
7936;DHT22;4013;49.744;8.118;2022-10-16T13:07:12;19.10;99.90
7936;DHT22;4013;49.744;8.118;2022-10-16T13:09:50;19.00;99.90
7936;DHT22;4013;49.744;8.118;2022-10-16T13:12:51;19.00;99.90
7936;DHT22;4013;49.744;8.118;2022-10-16T13:15:27;19.00;99.90
7936;DHT22;4013;49.744;8.118;2022-10-16T13:18:05;18.90;99.90
7936;DHT22;4013;49.744;8.118;2022-10-16T13:20:36;18.90;99.90
7936;DHT22;4013;49.744;8.118;2022-10-16T13:23:13;18.80;99.90
7936;DHT22;4013;49.744;8.118;2022-10-16T13:25:52;18.80;99.90
7936;DHT22;4013;49.744;8.118;2022-10-16T13:28:28;18.80;99.90
7936;DHT22;4013;49.744;8.118;2022-10-16T13:30:58;18.80;99.90
7936;DHT22;4013;49.744;8.118;2022-10-16T13:33:31;18.80;99.90
7936;DHT22;4013;49.744;8.118;2022-10-16T13:35:59;18.80;99.90
7936;DHT22;4013;49.744;8.118;2022-10-16T13:38:27;18.70;99.90
7936;DHT22;4013;49.744;8.118;2022-10-16T13:40:55;18.70;99.90
7936;DHT22;4013;49.744;8.118;2022-10-16T13:43:27;18.70;99.90
7936;DHT22;4013;49.744;8.118;2022-10-16T13:45:59;18.70;99.90
7936;DHT22;4013;49.744;8.118;2022-10-16T13:48:27;18.80;99.90
7936;DHT22;4013;49.744;8.118;2022-10-16T13:51:06;19.00;99.90
7936;DHT22;4013;49.744;8.118;2022-10-16T13:53:34;19.10;99.90
7936;DHT22;4013;49.744;8.118;2022-10-16T13:56:06;19.20;99.90
7936;DHT22;4013;49.744;8.118;2022-10-16T13:58:35;19.30;99.90
7936;DHT22;4013;49.744;8.118;2022-10-16T14:01:03;19.30;99.90
7936;DHT22;4013;49.744;8.118;2022-10-16T14:03:32;19.20;99.90
7936;DHT22;4013;49.744;8.118;2022-10-16T14:06:02;19.20;99.90
7936;DHT22;4013;49.744;8.118;2022-10-16T14:08:30;19.20;99.90
7936;DHT22;4013;49.744;8.118;2022-10-16T14:10:59;19.20;99.90
7936;DHT22;4013;49.744;8.118;2022-10-16T14:13:30;19.20;99.90
7936;DHT22;4013;49.744;8.118;2022-10-16T14:16:02;19.20;99.90
7936;DHT22;4013;49.744;8.118;2022-10-16T14:18:32;19.20;99.90
7936;DHT22;4013;49.744;8.118;2022-10-16T14:21:04;19.20;99.90
7936;DHT22;4013;49.744;8.118;2022-10-16T14:23:35;19.20;99.90
7936;DHT22;4013;49.744;8.118;2022-10-16T14:26:11;19.20;99.90
7936;DHT22;4013;49.744;8.118;2022-10-16T14:28:40;19.20;99.90
7936;DHT22;4013;49.744;8.118;2022-10-16T14:31:25;19.20;99.90
7936;DHT22;4013;49.744;8.118;2022-10-16T14:33:52;19.10;99.90
7936;DHT22;4013;49.744;8.118;2022-10-16T14:36:20;19.10;99.90
7936;DHT22;4013;49.744;8.118;2022-10-16T14:38:50;19.10;99.90
7936;DHT22;4013;49.744;8.118;2022-10-16T14:41:20;19.10;99.90
7936;DHT22;4013;49.744;8.118;2022-10-16T14:43:51;19.10;99.90
7936;DHT22;4013;49.744;8.118;2022-10-16T14:46:21;19.10;99.90
7936;DHT22;4013;49.744;8.118;2022-10-16T14:48:56;19.00;99.90
7936;DHT22;4013;49.744;8.118;2022-10-16T14:51:26;19.10;99.90
7936;DHT22;4013;49.744;8.118;2022-10-16T14:53:53;19.00;99.90
7936;DHT22;4013;49.744;8.118;2022-10-16T14:56:21;19.00;99.90
7936;DHT22;4013;49.744;8.118;2022-10-16T14:58:50;19.00;99.90
7936;DHT22;4013;49.744;8.118;2022-10-16T15:01:18;19.10;99.90
7936;DHT22;4013;49.744;8.118;2022-10-16T15:03:47;19.10;99.90
7936;DHT22;4013;49.744;8.118;2022-10-16T15:06:15;19.10;99.90
7936;DHT22;4013;49.744;8.118;2022-10-16T15:08:42;19.00;99.90
7936;DHT22;4013;49.744;8.118;2022-10-16T15:11:11;19.00;99.90
7936;DHT22;4013;49.744;8.118;2022-10-16T15:13:39;19.00;99.90
7936;DHT22;4013;49.744;8.118;2022-10-16T15:16:09;19.00;99.90
7936;DHT22;4013;49.744;8.118;2022-10-16T15:18:37;19.00;99.90
7936;DHT22;4013;49.744;8.118;2022-10-16T15:21:05;19.00;99.90
7936;DHT22;4013;49.744;8.118;2022-10-16T15:23:32;19.00;99.90
7936;DHT22;4013;49.744;8.118;2022-10-16T15:25:59;18.90;99.90
7936;DHT22;4013;49.744;8.118;2022-10-16T15:28:26;19.00;99.90
7936;DHT22;4013;49.744;8.118;2022-10-16T15:30:55;18.90;99.90
7936;DHT22;4013;49.744;8.118;2022-10-16T15:33:26;18.90;99.90
7936;DHT22;4013;49.744;8.118;2022-10-16T15:35:58;18.90;99.90
7936;DHT22;4013;49.744;8.118;2022-10-16T15:38:27;19.00;99.90
7936;DHT22;4013;49.744;8.118;2022-10-16T15:40:55;19.00;99.90
7936;DHT22;4013;49.744;8.118;2022-10-16T15:43:22;18.90;99.90
7936;DHT22;4013;49.744;8.118;2022-10-16T15:45:59;18.90;99.90
7936;DHT22;4013;49.744;8.118;2022-10-16T15:48:26;18.90;99.90
7936;DHT22;4013;49.744;8.118;2022-10-16T15:50:53;18.90;99.90
7936;DHT22;4013;49.744;8.118;2022-10-16T15:53:20;18.80;99.90
7936;DHT22;4013;49.744;8.118;2022-10-16T15:55:49;18.80;99.90
7936;DHT22;4013;49.744;8.118;2022-10-16T15:58:16;18.80;99.90
7936;DHT22;4013;49.744;8.118;2022-10-16T16:00:43;18.80;99.90
7936;DHT22;4013;49.744;8.118;2022-10-16T16:03:10;18.80;99.90
7936;DHT22;4013;49.744;8.118;2022-10-16T16:05:38;18.70;99.90
7936;DHT22;4013;49.744;8.118;2022-10-16T16:08:05;18.70;99.90
7936;DHT22;4013;49.744;8.118;2022-10-16T16:10:32;18.70;99.90
7936;DHT22;4013;49.744;8.118;2022-10-16T16:13:00;18.60;99.90
7936;DHT22;4013;49.744;8.118;2022-10-16T16:15:27;18.60;99.90
7936;DHT22;4013;49.744;8.118;2022-10-16T16:17:54;18.60;99.90
7936;DHT22;4013;49.744;8.118;2022-10-16T16:20:21;18.50;99.90
7936;DHT22;4013;49.744;8.118;2022-10-16T16:22:48;18.50;99.90
7936;DHT22;4013;49.744;8.118;2022-10-16T16:25:15;18.40;99.90